Time;durP1;ratioP1;P1;durP2;ratioP2;P2;SDS_P1;SDS_P2;PMS_P1;PMS_P2;Temp;Humidity;BMP_temperature;BMP_pressure;BME280_temperature;BME280_humidity;BME280_pressure;Samples;Min_cycle;Max_cycle;Signal;HPM_P1;HPM_P2
2022/05/01 00:00:00;;;;;;;8.9;8.1;;;;;;;11.3;100.0;102210;;;;
2022/05/01 00:01:00;;;;;;;8.9;8.1;;;;;;;11.3;100.0;102210;;;;
2022/05/01 00:02:00;;;;;;;8.9;8.1;;;;;;;11.3;100.0;102210;;;;
2022/05/01 00:03:00;;;;;;;8.9;8.1;;;;;;;11.3;100.0;102210;;;;
2022/05/01 00:04:00;;;;;;;8.9;8.1;;;;;;;11.3;100.0;102210;;;;
2022/05/01 00:05:01;;;;;;;8.9;8.1;;;;;;;11.3;100.0;102210;;;;
2022/05/01 00:06:01;;;;;;;8.9;8.1;;;;;;;11.2;100.0;102210;;;;
2022/05/01 00:07:00;;;;;;;8.9;8.1;;;;;;;11.2;100.0;102210;;;;
2022/05/01 00:08:00;;;;;;;8.9;8.1;;;;;;;11.2;100.0;102220;;;;
2022/05/01 00:09:00;;;;;;;8.9;8.1;;;;;;;11.2;100.0;102220;;;;
2022/05/01 00:10:00;;;;;;;8.9;8.1;;;;;;;11.2;100.0;102220;;;;
2022/05/01 00:11:10;;;;;;;8.9;8.1;;;;;;;11.2;100.0;102220;;;;
2022/05/01 00:12:00;;;;;;;8.9;8.1;;;;;;;11.1;100.0;102220;;;;
2022/05/01 00:13:00;;;;;;;8.9;8.1;;;;;;;11.1;100.0;102220;;;;
2022/05/01 00:14:00;;;;;;;8.9;8.1;;;;;;;11.2;100.0;102210;;;;
2022/05/01 00:15:00;;;;;;;8.9;8.1;;;;;;;11.2;100.0;102210;;;;
2022/05/01 00:16:00;;;;;;;9.5;8.6;;;;;;;11.2;100.0;102210;;;;
2022/05/01 00:17:00;;;;;;;9.5;8.6;;;;;;;11.2;100.0;102210;;;;
2022/05/01 00:18:00;;;;;;;9.5;8.6;;;;;;;11.2;100.0;102210;;;;
2022/05/01 00:19:00;;;;;;;9.5;8.6;;;;;;;11.2;100.0;102210;;;;
2022/05/01 00:20:01;;;;;;;9.5;8.6;;;;;;;11.2;100.0;102210;;;;
2022/05/01 00:21:00;;;;;;;9.5;8.6;;;;;;;11.2;100.0;102210;;;;
2022/05/01 00:22:00;;;;;;;9.5;8.6;;;;;;;11.2;100.0;102210;;;;
2022/05/01 00:23:00;;;;;;;9.5;8.6;;;;;;;11.2;100.0;102210;;;;
2022/05/01 00:24:00;;;;;;;9.5;8.6;;;;;;;11.2;100.0;102210;;;;
2022/05/01 00:25:00;;;;;;;9.5;8.6;;;;;;;11.2;100.0;102210;;;;
2022/05/01 00:26:02;;;;;;;9.5;8.6;;;;;;;11.2;100.0;102210;;;;
2022/05/01 00:27:00;;;;;;;9.5;8.6;;;;;;;11.2;100.0;102210;;;;
2022/05/01 00:28:00;;;;;;;9.5;8.6;;;;;;;11.2;100.0;102210;;;;
2022/05/01 00:29:02;;;;;;;9.5;8.6;;;;;;;11.2;100.0;102210;;;;
2022/05/01 00:30:00;;;;;;;9.5;8.6;;;;;;;11.2;100.0;102210;;;;
2022/05/01 00:31:01;;;;;;;9.5;8.6;;;;;;;11.2;100.0;102210;;;;
2022/05/01 00:32:00;;;;;;;9.5;8.6;;;;;;;11.2;100.0;102210;;;;
2022/05/01 00:37:00;;;;;;;10.3;9.2;;;;;;;11.2;100.0;102210;;;;
2022/05/01 00:38:00;;;;;;;10.3;9.2;;;;;;;11.1;100.0;102210;;;;
2022/05/01 00:39:02;;;;;;;10.3;9.2;;;;;;;11.1;100.0;102210;;;;
2022/05/01 00:40:00;;;;;;;10.3;9.2;;;;;;;11.0;100.0;102200;;;;
2022/05/01 00:41:00;;;;;;;10.3;9.2;;;;;;;11.0;100.0;102200;;;;
2022/05/01 00:42:00;;;;;;;10.3;9.2;;;;;;;11.1;100.0;102200;;;;
2022/05/01 00:43:01;;;;;;;10.3;9.2;;;;;;;11.1;100.0;102200;;;;
2022/05/01 00:44:03;;;;;;;10.3;9.2;;;;;;;11.1;100.0;102210;;;;
2022/05/01 00:45:00;;;;;;;10.3;9.2;;;;;;;11.1;100.0;102210;;;;
2022/05/01 00:46:00;;;;;;;10.3;9.2;;;;;;;11.1;100.0;102210;;;;
2022/05/01 00:47:00;;;;;;;10.3;9.2;;;;;;;11.1;100.0;102210;;;;
2022/05/01 00:48:00;;;;;;;10.3;9.2;;;;;;;11.0;100.0;102210;;;;
2022/05/01 00:49:01;;;;;;;10.3;9.2;;;;;;;11.0;100.0;102210;;;;
2022/05/01 00:50:00;;;;;;;10.3;9.2;;;;;;;11.0;100.0;102210;;;;
2022/05/01 00:51:00;;;;;;;10.3;9.2;;;;;;;11.0;100.0;102210;;;;
2022/05/01 00:52:04;;;;;;;10.3;9.2;;;;;;;11.1;100.0;102200;;;;
2022/05/01 00:53:00;;;;;;;10.3;9.2;;;;;;;11.1;100.0;102200;;;;
2022/05/01 00:54:00;;;;;;;10.3;9.2;;;;;;;11.1;100.0;102200;;;;
2022/05/01 00:55:00;;;;;;;10.6;9.6;;;;;;;11.1;100.0;102200;;;;
2022/05/01 00:56:01;;;;;;;10.6;9.6;;;;;;;11.2;100.0;102200;;;;
2022/05/01 00:57:01;;;;;;;10.6;9.6;;;;;;;11.2;100.0;102200;;;;
2022/05/01 00:58:01;;;;;;;10.6;9.6;;;;;;;11.1;100.0;102200;;;;
2022/05/01 00:59:00;;;;;;;10.6;9.6;;;;;;;11.1;100.0;102200;;;;
2022/05/01 01:00:00;;;;;;;10.6;9.6;;;;;;;11.0;100.0;102200;;;;
2022/05/01 01:01:00;;;;;;;10.6;9.6;;;;;;;11.0;100.0;102200;;;;
2022/05/01 01:02:00;;;;;;;10.6;9.6;;;;;;;10.9;100.0;102190;;;;
2022/05/01 01:03:01;;;;;;;10.6;9.6;;;;;;;10.9;100.0;102190;;;;
2022/05/01 01:04:00;;;;;;;10.6;9.6;;;;;;;11.0;100.0;102190;;;;
2022/05/01 01:05:00;;;;;;;10.6;9.6;;;;;;;11.0;100.0;102190;;;;
2022/05/01 01:06:00;;;;;;;10.6;9.6;;;;;;;11.0;100.0;102190;;;;
2022/05/01 01:07:00;;;;;;;10.6;9.6;;;;;;;11.0;100.0;102190;;;;
2022/05/01 01:08:01;;;;;;;10.6;9.6;;;;;;;10.9;100.0;102190;;;;
2022/05/01 01:09:00;;;;;;;10.6;9.6;;;;;;;10.9;100.0;102190;;;;
2022/05/01 01:10:06;;;;;;;10.6;9.6;;;;;;;10.9;100.0;102190;;;;
2022/05/01 01:11:00;;;;;;;10.6;9.6;;;;;;;10.9;100.0;102190;;;;
2022/05/01 01:13:00;;;;;;;10.6;9.6;;;;;;;11.0;100.0;102200;;;;
2022/05/01 01:14:00;;;;;;;10.6;9.6;;;;;;;11.0;100.0;102190;;;;
2022/05/01 01:15:00;;;;;;;11.7;10.6;;;;;;;11.0;100.0;102190;;;;
2022/05/01 01:16:00;;;;;;;11.7;10.6;;;;;;;11.0;100.0;102190;;;;
2022/05/01 01:17:00;;;;;;;11.7;10.6;;;;;;;11.0;100.0;102190;;;;
2022/05/01 01:18:00;;;;;;;11.7;10.6;;;;;;;11.0;100.0;102190;;;;
2022/05/01 01:19:00;;;;;;;11.7;10.6;;;;;;;11.0;100.0;102190;;;;
2022/05/01 01:20:00;;;;;;;11.7;10.6;;;;;;;11.0;100.0;102190;;;;
2022/05/01 01:21:00;;;;;;;11.7;10.6;;;;;;;11.0;100.0;102190;;;;
2022/05/01 01:22:00;;;;;;;11.7;10.6;;;;;;;11.0;100.0;102190;;;;
2022/05/01 01:23:01;;;;;;;11.7;10.6;;;;;;;11.0;100.0;102190;;;;
2022/05/01 01:24:01;;;;;;;11.7;10.6;;;;;;;10.9;100.0;102190;;;;
2022/05/01 01:25:00;;;;;;;11.7;10.6;;;;;;;10.9;100.0;102190;;;;
2022/05/01 01:26:00;;;;;;;11.7;10.6;;;;;;;11.0;100.0;102190;;;;
2022/05/01 01:27:01;;;;;;;11.7;10.6;;;;;;;11.0;100.0;102190;;;;
2022/05/01 01:28:02;;;;;;;11.7;10.6;;;;;;;11.0;100.0;102190;;;;
2022/05/01 01:29:00;;;;;;;11.7;10.6;;;;;;;11.0;100.0;102190;;;;
2022/05/01 01:32:00;;;;;;;11.7;10.6;;;;;;;10.9;100.0;102180;;;;
2022/05/01 01:33:01;;;;;;;11.7;10.6;;;;;;;10.9;100.0;102180;;;;
2022/05/01 01:34:04;;;;;;;11.7;10.6;;;;;;;10.9;100.0;102190;;;;
2022/05/01 01:35:00;;;;;;;12.5;11.3;;;;;;;10.9;100.0;102190;;;;
2022/05/01 01:36:02;;;;;;;12.5;11.3;;;;;;;10.9;100.0;102180;;;;
2022/05/01 01:37:00;;;;;;;12.5;11.3;;;;;;;10.9;100.0;102180;;;;
2022/05/01 01:38:00;;;;;;;12.5;11.3;;;;;;;10.9;100.0;102190;;;;
2022/05/01 01:39:00;;;;;;;12.5;11.3;;;;;;;10.9;100.0;102190;;;;
2022/05/01 01:40:00;;;;;;;12.5;11.3;;;;;;;10.9;100.0;102190;;;;
2022/05/01 01:41:04;;;;;;;12.5;11.3;;;;;;;10.9;100.0;102190;;;;
2022/05/01 01:42:04;;;;;;;12.5;11.3;;;;;;;10.9;100.0;102190;;;;
2022/05/01 01:43:01;;;;;;;12.5;11.3;;;;;;;10.9;100.0;102190;;;;
2022/05/01 01:44:00;;;;;;;12.5;11.3;;;;;;;10.9;100.0;102180;;;;
2022/05/01 01:45:01;;;;;;;12.5;11.3;;;;;;;10.9;100.0;102180;;;;
2022/05/01 01:46:00;;;;;;;12.5;11.3;;;;;;;10.9;100.0;102180;;;;
2022/05/01 01:47:00;;;;;;;12.5;11.3;;;;;;;10.9;100.0;102180;;;;
2022/05/01 01:48:10;;;;;;;12.5;11.3;;;;;;;10.9;100.0;102180;;;;
2022/05/01 01:49:00;;;;;;;12.5;11.3;;;;;;;10.9;100.0;102180;;;;
2022/05/01 01:50:00;;;;;;;12.5;11.3;;;;;;;10.8;100.0;102180;;;;
2022/05/01 01:51:02;;;;;;;12.5;11.3;;;;;;;10.8;100.0;102180;;;;
2022/05/01 01:52:00;;;;;;;12.5;11.3;;;;;;;10.7;100.0;102180;;;;
2022/05/01 01:53:00;;;;;;;12.5;11.3;;;;;;;10.7;100.0;102180;;;;
2022/05/01 01:54:00;;;;;;;12.5;11.3;;;;;;;10.8;100.0;102180;;;;
2022/05/01 01:55:00;;;;;;;12.9;11.8;;;;;;;10.8;100.0;102180;;;;
2022/05/01 01:56:00;;;;;;;12.9;11.8;;;;;;;10.9;100.0;102180;;;;
2022/05/01 01:57:00;;;;;;;12.9;11.8;;;;;;;10.9;100.0;102180;;;;
2022/05/01 01:58:00;;;;;;;12.9;11.8;;;;;;;10.7;100.0;102170;;;;
2022/05/01 01:59:00;;;;;;;12.9;11.8;;;;;;;10.7;100.0;102170;;;;
2022/05/01 02:00:00;;;;;;;12.9;11.8;;;;;;;10.5;100.0;102180;;;;
2022/05/01 02:01:00;;;;;;;12.9;11.8;;;;;;;10.5;100.0;102180;;;;
2022/05/01 02:02:01;;;;;;;12.9;11.8;;;;;;;10.5;100.0;102180;;;;
2022/05/01 02:03:01;;;;;;;12.9;11.8;;;;;;;10.5;100.0;102180;;;;
2022/05/01 02:04:00;;;;;;;12.9;11.8;;;;;;;10.5;100.0;102180;;;;
2022/05/01 02:05:00;;;;;;;12.9;11.8;;;;;;;10.5;100.0;102180;;;;
2022/05/01 02:06:00;;;;;;;12.9;11.8;;;;;;;10.7;100.0;102180;;;;
2022/05/01 02:07:00;;;;;;;12.9;11.8;;;;;;;10.7;100.0;102180;;;;
2022/05/01 02:08:00;;;;;;;12.9;11.8;;;;;;;10.6;100.0;102180;;;;
2022/05/01 02:09:06;;;;;;;12.9;11.8;;;;;;;10.6;100.0;102180;;;;
2022/05/01 02:10:00;;;;;;;12.9;11.8;;;;;;;10.6;100.0;102180;;;;
2022/05/01 02:11:01;;;;;;;12.9;11.8;;;;;;;10.6;100.0;102180;;;;
2022/05/01 02:12:00;;;;;;;12.9;11.8;;;;;;;10.7;100.0;102180;;;;
2022/05/01 02:13:00;;;;;;;12.9;11.8;;;;;;;10.7;100.0;102180;;;;
2022/05/01 02:14:00;;;;;;;12.9;11.8;;;;;;;10.6;100.0;102180;;;;
2022/05/01 02:15:00;;;;;;;14.1;12.8;;;;;;;10.6;100.0;102180;;;;
2022/05/01 02:16:00;;;;;;;14.1;12.8;;;;;;;10.7;100.0;102170;;;;
2022/05/01 02:17:02;;;;;;;14.1;12.8;;;;;;;10.7;100.0;102170;;;;
2022/05/01 02:18:00;;;;;;;14.1;12.8;;;;;;;10.7;100.0;102170;;;;
2022/05/01 02:19:00;;;;;;;14.1;12.8;;;;;;;10.7;100.0;102170;;;;
2022/05/01 02:20:00;;;;;;;14.1;12.8;;;;;;;10.7;100.0;102170;;;;
2022/05/01 02:22:01;;;;;;;14.1;12.8;;;;;;;10.7;100.0;102170;;;;
2022/05/01 02:23:00;;;;;;;14.1;12.8;;;;;;;10.7;100.0;102170;;;;
2022/05/01 02:24:01;;;;;;;14.1;12.8;;;;;;;10.6;100.0;102170;;;;
2022/05/01 02:25:00;;;;;;;14.1;12.8;;;;;;;10.6;100.0;102170;;;;
2022/05/01 02:26:00;;;;;;;14.1;12.8;;;;;;;10.6;100.0;102170;;;;
2022/05/01 02:27:00;;;;;;;14.1;12.8;;;;;;;10.6;100.0;102170;;;;
2022/05/01 02:28:00;;;;;;;14.1;12.8;;;;;;;10.6;100.0;102170;;;;
2022/05/01 02:29:00;;;;;;;14.1;12.8;;;;;;;10.6;100.0;102170;;;;
2022/05/01 02:30:00;;;;;;;14.1;12.8;;;;;;;10.6;100.0;102170;;;;
2022/05/01 02:31:00;;;;;;;14.1;12.8;;;;;;;10.6;100.0;102170;;;;
2022/05/01 02:32:00;;;;;;;14.1;12.8;;;;;;;10.5;100.0;102170;;;;
2022/05/01 02:33:00;;;;;;;14.1;12.8;;;;;;;10.5;100.0;102170;;;;
2022/05/01 02:34:00;;;;;;;14.1;12.8;;;;;;;10.5;100.0;102170;;;;
2022/05/01 02:35:00;;;;;;;14.5;13.1;;;;;;;10.5;100.0;102170;;;;
2022/05/01 02:36:01;;;;;;;14.5;13.1;;;;;;;10.6;100.0;102170;;;;
2022/05/01 02:37:00;;;;;;;14.5;13.1;;;;;;;10.6;100.0;102170;;;;
2022/05/01 02:38:01;;;;;;;14.5;13.1;;;;;;;10.5;100.0;102170;;;;
2022/05/01 02:39:00;;;;;;;14.5;13.1;;;;;;;10.5;100.0;102170;;;;
2022/05/01 02:40:00;;;;;;;14.5;13.1;;;;;;;10.4;100.0;102160;;;;
2022/05/01 02:41:01;;;;;;;14.5;13.1;;;;;;;10.4;100.0;102160;;;;
2022/05/01 02:42:00;;;;;;;14.5;13.1;;;;;;;10.5;100.0;102160;;;;
2022/05/01 02:43:00;;;;;;;14.5;13.1;;;;;;;10.5;100.0;102160;;;;
2022/05/01 02:44:00;;;;;;;14.5;13.1;;;;;;;10.4;100.0;102160;;;;
2022/05/01 02:45:00;;;;;;;14.5;13.1;;;;;;;10.4;100.0;102160;;;;
2022/05/01 02:46:00;;;;;;;14.5;13.1;;;;;;;10.4;100.0;102160;;;;
2022/05/01 02:47:00;;;;;;;14.5;13.1;;;;;;;10.4;100.0;102160;;;;
2022/05/01 02:48:00;;;;;;;14.5;13.1;;;;;;;10.4;100.0;102160;;;;
2022/05/01 02:49:00;;;;;;;14.5;13.1;;;;;;;10.4;100.0;102160;;;;
2022/05/01 02:50:03;;;;;;;14.5;13.1;;;;;;;10.5;100.0;102160;;;;
2022/05/01 02:51:04;;;;;;;14.5;13.1;;;;;;;10.5;100.0;102160;;;;
2022/05/01 02:52:00;;;;;;;14.5;13.1;;;;;;;10.5;100.0;102160;;;;
2022/05/01 02:53:01;;;;;;;14.5;13.1;;;;;;;10.5;100.0;102160;;;;
2022/05/01 02:54:04;;;;;;;14.5;13.1;;;;;;;10.5;100.0;102160;;;;
2022/05/01 02:55:00;;;;;;;15.1;13.6;;;;;;;10.5;100.0;102160;;;;
2022/05/01 02:56:00;;;;;;;15.1;13.6;;;;;;;10.5;100.0;102160;;;;
2022/05/01 02:57:00;;;;;;;15.1;13.6;;;;;;;10.5;100.0;102160;;;;
2022/05/01 02:58:00;;;;;;;15.1;13.6;;;;;;;10.4;100.0;102150;;;;
2022/05/01 02:59:00;;;;;;;15.1;13.6;;;;;;;10.4;100.0;102150;;;;
2022/05/01 03:00:00;;;;;;;15.1;13.6;;;;;;;10.4;100.0;102150;;;;
2022/05/01 03:01:00;;;;;;;15.1;13.6;;;;;;;10.4;100.0;102150;;;;
2022/05/01 03:02:00;;;;;;;15.1;13.6;;;;;;;10.4;100.0;102160;;;;
2022/05/01 03:03:00;;;;;;;15.1;13.6;;;;;;;10.4;100.0;102160;;;;
2022/05/01 03:04:00;;;;;;;15.1;13.6;;;;;;;10.4;100.0;102150;;;;
2022/05/01 03:05:00;;;;;;;15.1;13.6;;;;;;;10.4;100.0;102150;;;;
2022/05/01 03:06:00;;;;;;;15.1;13.6;;;;;;;10.4;100.0;102150;;;;
2022/05/01 03:07:00;;;;;;;15.1;13.6;;;;;;;10.4;100.0;102150;;;;
2022/05/01 03:08:00;;;;;;;15.1;13.6;;;;;;;10.4;100.0;102150;;;;
2022/05/01 03:09:00;;;;;;;15.1;13.6;;;;;;;10.4;100.0;102150;;;;
2022/05/01 03:10:00;;;;;;;15.1;13.6;;;;;;;10.4;100.0;102150;;;;
2022/05/01 03:11:01;;;;;;;15.1;13.6;;;;;;;10.4;100.0;102150;;;;
2022/05/01 03:12:00;;;;;;;15.1;13.6;;;;;;;10.3;100.0;102150;;;;
2022/05/01 03:13:00;;;;;;;15.1;13.6;;;;;;;10.3;100.0;102150;;;;
2022/05/01 03:14:00;;;;;;;15.1;13.6;;;;;;;10.3;100.0;102150;;;;
2022/05/01 03:15:00;;;;;;;15.2;13.8;;;;;;;10.3;100.0;102150;;;;
2022/05/01 03:16:00;;;;;;;15.2;13.8;;;;;;;10.4;100.0;102150;;;;
2022/05/01 03:17:00;;;;;;;15.2;13.8;;;;;;;10.4;100.0;102150;;;;
2022/05/01 03:23:00;;;;;;;15.2;13.8;;;;;;;10.3;100.0;102150;;;;
2022/05/01 03:24:00;;;;;;;15.2;13.8;;;;;;;10.3;100.0;102150;;;;
2022/05/01 03:25:00;;;;;;;15.2;13.8;;;;;;;10.3;100.0;102150;;;;
2022/05/01 03:26:00;;;;;;;15.2;13.8;;;;;;;10.4;100.0;102140;;;;
2022/05/01 03:27:00;;;;;;;15.2;13.8;;;;;;;10.4;100.0;102140;;;;
2022/05/01 03:28:00;;;;;;;15.2;13.8;;;;;;;10.4;100.0;102150;;;;
2022/05/01 03:29:00;;;;;;;15.2;13.8;;;;;;;10.4;100.0;102150;;;;
2022/05/01 03:31:00;;;;;;;15.2;13.8;;;;;;;10.3;100.0;102140;;;;
2022/05/01 03:32:01;;;;;;;15.2;13.8;;;;;;;10.3;100.0;102140;;;;
2022/05/01 03:33:04;;;;;;;15.2;13.8;;;;;;;10.3;100.0;102140;;;;
2022/05/01 03:34:01;;;;;;;15.2;13.8;;;;;;;10.3;100.0;102140;;;;
2022/05/01 03:35:00;;;;;;;15.4;13.9;;;;;;;10.3;100.0;102140;;;;
2022/05/01 03:36:00;;;;;;;15.4;13.9;;;;;;;10.3;100.0;102140;;;;
2022/05/01 03:37:00;;;;;;;15.4;13.9;;;;;;;10.3;100.0;102140;;;;
2022/05/01 03:38:00;;;;;;;15.4;13.9;;;;;;;10.3;100.0;102140;;;;
2022/05/01 03:39:00;;;;;;;15.4;13.9;;;;;;;10.3;100.0;102140;;;;
2022/05/01 03:40:00;;;;;;;15.4;13.9;;;;;;;10.3;100.0;102130;;;;
2022/05/01 03:41:00;;;;;;;15.4;13.9;;;;;;;10.3;100.0;102130;;;;
2022/05/01 03:42:00;;;;;;;15.4;13.9;;;;;;;10.4;100.0;102130;;;;
2022/05/01 03:43:00;;;;;;;15.4;13.9;;;;;;;10.4;100.0;102130;;;;
2022/05/01 03:44:00;;;;;;;15.4;13.9;;;;;;;10.3;100.0;102130;;;;
2022/05/01 03:45:00;;;;;;;15.4;13.9;;;;;;;10.3;100.0;102130;;;;
2022/05/01 03:46:00;;;;;;;15.4;13.9;;;;;;;10.3;100.0;102130;;;;
2022/05/01 03:47:00;;;;;;;15.4;13.9;;;;;;;10.3;100.0;102130;;;;
2022/05/01 03:48:00;;;;;;;15.4;13.9;;;;;;;10.3;100.0;102130;;;;
2022/05/01 03:49:00;;;;;;;15.4;13.9;;;;;;;10.3;100.0;102130;;;;
2022/05/01 03:50:00;;;;;;;15.4;13.9;;;;;;;10.2;100.0;102130;;;;
2022/05/01 03:51:00;;;;;;;15.4;13.9;;;;;;;10.2;100.0;102130;;;;
2022/05/01 03:52:00;;;;;;;15.4;13.9;;;;;;;10.2;100.0;102130;;;;
2022/05/01 03:53:02;;;;;;;15.4;13.9;;;;;;;10.2;100.0;102130;;;;
2022/05/01 03:54:02;;;;;;;15.4;13.9;;;;;;;10.3;100.0;102130;;;;
2022/05/01 03:55:01;;;;;;;15.5;14.2;;;;;;;10.3;100.0;102130;;;;
2022/05/01 03:56:00;;;;;;;15.5;14.2;;;;;;;10.3;100.0;102130;;;;
2022/05/01 03:57:02;;;;;;;15.5;14.2;;;;;;;10.3;100.0;102130;;;;
2022/05/01 03:58:01;;;;;;;15.5;14.2;;;;;;;10.2;100.0;102130;;;;
2022/05/01 03:59:04;;;;;;;15.5;14.2;;;;;;;10.2;100.0;102130;;;;
2022/05/01 04:00:00;;;;;;;15.5;14.2;;;;;;;10.2;100.0;102130;;;;
2022/05/01 04:01:00;;;;;;;15.5;14.2;;;;;;;10.2;100.0;102130;;;;
2022/05/01 04:02:00;;;;;;;15.5;14.2;;;;;;;10.2;100.0;102130;;;;
2022/05/01 04:03:00;;;;;;;15.5;14.2;;;;;;;10.2;100.0;102130;;;;
2022/05/01 04:04:00;;;;;;;15.5;14.2;;;;;;;10.3;100.0;102130;;;;
2022/05/01 04:05:00;;;;;;;15.5;14.2;;;;;;;10.3;100.0;102130;;;;
2022/05/01 04:06:00;;;;;;;15.5;14.2;;;;;;;10.2;100.0;102130;;;;
2022/05/01 04:07:00;;;;;;;15.5;14.2;;;;;;;10.2;100.0;102130;;;;
2022/05/01 04:08:00;;;;;;;15.5;14.2;;;;;;;10.2;100.0;102130;;;;
2022/05/01 04:09:00;;;;;;;15.5;14.2;;;;;;;10.2;100.0;102130;;;;
2022/05/01 04:10:00;;;;;;;15.5;14.2;;;;;;;10.2;100.0;102130;;;;
2022/05/01 04:11:01;;;;;;;15.5;14.2;;;;;;;10.2;100.0;102130;;;;
2022/05/01 04:12:00;;;;;;;15.5;14.2;;;;;;;10.2;100.0;102130;;;;
2022/05/01 04:13:00;;;;;;;15.5;14.2;;;;;;;10.2;100.0;102130;;;;
2022/05/01 04:14:01;;;;;;;15.5;14.2;;;;;;;10.1;100.0;102130;;;;
2022/05/01 04:15:02;;;;;;;15.7;14.2;;;;;;;10.1;100.0;102130;;;;
2022/05/01 04:16:00;;;;;;;15.7;14.2;;;;;;;10.1;100.0;102130;;;;
2022/05/01 04:17:00;;;;;;;15.7;14.2;;;;;;;10.1;100.0;102130;;;;
2022/05/01 04:18:02;;;;;;;15.7;14.2;;;;;;;10.1;100.0;102130;;;;
2022/05/01 04:19:00;;;;;;;15.7;14.2;;;;;;;10.1;100.0;102130;;;;
2022/05/01 04:20:00;;;;;;;15.7;14.2;;;;;;;10.2;100.0;102130;;;;
2022/05/01 04:21:00;;;;;;;15.7;14.2;;;;;;;10.2;100.0;102130;;;;
2022/05/01 04:22:00;;;;;;;15.7;14.2;;;;;;;10.2;100.0;102130;;;;
2022/05/01 04:23:02;;;;;;;15.7;14.2;;;;;;;10.2;100.0;102130;;;;
2022/05/01 04:24:00;;;;;;;15.7;14.2;;;;;;;10.2;100.0;102130;;;;
2022/05/01 04:25:00;;;;;;;15.7;14.2;;;;;;;10.2;100.0;102130;;;;
2022/05/01 04:26:00;;;;;;;15.7;14.2;;;;;;;10.1;100.0;102130;;;;
2022/05/01 04:27:06;;;;;;;15.7;14.2;;;;;;;10.1;100.0;102130;;;;
2022/05/01 04:28:01;;;;;;;15.7;14.2;;;;;;;10.2;100.0;102130;;;;
2022/05/01 04:30:00;;;;;;;15.7;14.2;;;;;;;10.2;100.0;102140;;;;
2022/05/01 04:31:00;;;;;;;15.7;14.2;;;;;;;10.2;100.0;102140;;;;
2022/05/01 04:32:00;;;;;;;15.7;14.2;;;;;;;10.1;100.0;102140;;;;
2022/05/01 04:33:01;;;;;;;15.7;14.2;;;;;;;10.1;100.0;102140;;;;
2022/05/01 04:34:00;;;;;;;15.7;14.2;;;;;;;10.1;100.0;102140;;;;
2022/05/01 04:35:00;;;;;;;16.6;15.1;;;;;;;10.1;100.0;102140;;;;
2022/05/01 04:36:00;;;;;;;16.6;15.1;;;;;;;10.2;100.0;102140;;;;
2022/05/01 04:37:00;;;;;;;16.6;15.1;;;;;;;10.2;100.0;102140;;;;
2022/05/01 04:38:02;;;;;;;16.6;15.1;;;;;;;10.0;100.0;102140;;;;
2022/05/01 04:39:00;;;;;;;16.6;15.1;;;;;;;10.0;100.0;102140;;;;
2022/05/01 04:40:00;;;;;;;16.6;15.1;;;;;;;10.0;100.0;102130;;;;
2022/05/01 04:41:00;;;;;;;16.6;15.1;;;;;;;10.0;100.0;102130;;;;
2022/05/01 04:42:00;;;;;;;16.6;15.1;;;;;;;10.0;100.0;102130;;;;
2022/05/01 04:43:01;;;;;;;16.6;15.1;;;;;;;10.0;100.0;102130;;;;
2022/05/01 04:44:00;;;;;;;16.6;15.1;;;;;;;10.0;100.0;102130;;;;
2022/05/01 04:45:00;;;;;;;16.6;15.1;;;;;;;10.0;100.0;102130;;;;
2022/05/01 04:46:00;;;;;;;16.6;15.1;;;;;;;10.0;100.0;102130;;;;
2022/05/01 04:47:00;;;;;;;16.6;15.1;;;;;;;10.0;100.0;102130;;;;
2022/05/01 04:48:01;;;;;;;16.6;15.1;;;;;;;10.0;100.0;102140;;;;
2022/05/01 04:49:00;;;;;;;16.6;15.1;;;;;;;10.0;100.0;102140;;;;
2022/05/01 04:50:00;;;;;;;16.6;15.1;;;;;;;10.0;100.0;102140;;;;
2022/05/01 04:51:00;;;;;;;16.6;15.1;;;;;;;10.0;100.0;102140;;;;
2022/05/01 04:52:00;;;;;;;16.6;15.1;;;;;;;10.0;100.0;102140;;;;
2022/05/01 04:53:01;;;;;;;16.6;15.1;;;;;;;10.0;100.0;102140;;;;
2022/05/01 04:54:00;;;;;;;16.6;15.1;;;;;;;10.0;100.0;102140;;;;
2022/05/01 04:55:00;;;;;;;16.7;15.1;;;;;;;10.0;100.0;102140;;;;
2022/05/01 04:57:04;;;;;;;16.7;15.1;;;;;;;10.0;100.0;102140;;;;
2022/05/01 04:57:08;;;;;;;16.7;15.1;;;;;;;10.0;100.0;102140;;;;
2022/05/01 04:58:00;;;;;;;16.7;15.1;;;;;;;10.0;100.0;102140;;;;
2022/05/01 04:59:01;;;;;;;16.7;15.1;;;;;;;10.0;100.0;102140;;;;
2022/05/01 05:00:00;;;;;;;16.7;15.1;;;;;;;10.1;100.0;102140;;;;
2022/05/01 05:01:00;;;;;;;16.7;15.1;;;;;;;10.1;100.0;102140;;;;
2022/05/01 05:02:05;;;;;;;16.7;15.1;;;;;;;10.0;100.0;102140;;;;
2022/05/01 05:03:00;;;;;;;16.7;15.1;;;;;;;10.0;100.0;102140;;;;
2022/05/01 05:04:00;;;;;;;16.7;15.1;;;;;;;9.9;100.0;102140;;;;
2022/05/01 05:05:00;;;;;;;16.7;15.1;;;;;;;9.9;100.0;102140;;;;
2022/05/01 05:06:01;;;;;;;16.7;15.1;;;;;;;10.0;100.0;102140;;;;
2022/05/01 05:07:00;;;;;;;16.7;15.1;;;;;;;10.0;100.0;102140;;;;
2022/05/01 05:09:53;;;;;;;16.7;15.1;;;;;;;10.0;100.0;102140;;;;
2022/05/01 05:10:00;;;;;;;16.7;15.1;;;;;;;10.0;100.0;102140;;;;
2022/05/01 05:11:00;;;;;;;16.7;15.1;;;;;;;10.0;100.0;102140;;;;
2022/05/01 05:12:03;;;;;;;16.7;15.1;;;;;;;10.0;100.0;102150;;;;
2022/05/01 05:13:00;;;;;;;16.7;15.1;;;;;;;10.0;100.0;102150;;;;
2022/05/01 05:14:00;;;;;;;16.7;15.1;;;;;;;10.0;100.0;102150;;;;
2022/05/01 05:15:01;;;;;;;18.2;16.5;;;;;;;10.0;100.0;102150;;;;
2022/05/01 05:16:00;;;;;;;18.2;16.5;;;;;;;10.0;100.0;102150;;;;
2022/05/01 05:17:00;;;;;;;18.2;16.5;;;;;;;10.0;100.0;102150;;;;
2022/05/01 05:18:00;;;;;;;18.2;16.5;;;;;;;10.1;100.0;102150;;;;
2022/05/01 05:19:00;;;;;;;18.2;16.5;;;;;;;10.1;100.0;102150;;;;
2022/05/01 05:20:00;;;;;;;18.2;16.5;;;;;;;10.1;100.0;102150;;;;
2022/05/01 05:21:00;;;;;;;18.2;16.5;;;;;;;10.1;100.0;102150;;;;
2022/05/01 05:22:00;;;;;;;18.2;16.5;;;;;;;10.1;100.0;102150;;;;
2022/05/01 05:23:00;;;;;;;18.2;16.5;;;;;;;10.1;100.0;102150;;;;
2022/05/01 05:24:00;;;;;;;18.2;16.5;;;;;;;10.1;100.0;102150;;;;
2022/05/01 05:25:00;;;;;;;18.2;16.5;;;;;;;10.1;100.0;102150;;;;
2022/05/01 05:26:00;;;;;;;18.2;16.5;;;;;;;10.2;100.0;102150;;;;
2022/05/01 05:27:00;;;;;;;18.2;16.5;;;;;;;10.2;100.0;102150;;;;
2022/05/01 05:28:00;;;;;;;18.2;16.5;;;;;;;10.2;100.0;102150;;;;
2022/05/01 05:29:00;;;;;;;18.2;16.5;;;;;;;10.2;100.0;102150;;;;
2022/05/01 05:30:00;;;;;;;18.2;16.5;;;;;;;10.2;100.0;102160;;;;
2022/05/01 05:31:00;;;;;;;18.2;16.5;;;;;;;10.2;100.0;102160;;;;
2022/05/01 05:32:00;;;;;;;18.2;16.5;;;;;;;10.2;100.0;102160;;;;
2022/05/01 05:33:00;;;;;;;18.2;16.5;;;;;;;10.2;100.0;102160;;;;
2022/05/01 05:34:00;;;;;;;17.9;16.2;;;;;;;10.2;100.0;102160;;;;
2022/05/01 05:35:00;;;;;;;17.9;16.2;;;;;;;10.2;100.0;102160;;;;
2022/05/01 05:36:00;;;;;;;17.9;16.2;;;;;;;10.3;100.0;102160;;;;
2022/05/01 05:37:00;;;;;;;17.9;16.2;;;;;;;10.3;100.0;102160;;;;
2022/05/01 05:38:00;;;;;;;17.9;16.2;;;;;;;10.3;100.0;102160;;;;
2022/05/01 05:39:00;;;;;;;17.9;16.2;;;;;;;10.3;100.0;102160;;;;
2022/05/01 05:40:00;;;;;;;17.9;16.2;;;;;;;10.3;100.0;102160;;;;
2022/05/01 05:41:00;;;;;;;17.9;16.2;;;;;;;10.3;100.0;102160;;;;
2022/05/01 05:42:00;;;;;;;17.9;16.2;;;;;;;10.3;100.0;102170;;;;
2022/05/01 05:43:00;;;;;;;17.9;16.2;;;;;;;10.3;100.0;102170;;;;
2022/05/01 05:44:02;;;;;;;17.9;16.2;;;;;;;10.4;100.0;102170;;;;
2022/05/01 05:45:00;;;;;;;17.9;16.2;;;;;;;10.4;100.0;102170;;;;
2022/05/01 05:46:00;;;;;;;17.9;16.2;;;;;;;10.4;100.0;102170;;;;
2022/05/01 05:47:00;;;;;;;17.9;16.2;;;;;;;10.4;100.0;102170;;;;
2022/05/01 05:48:01;;;;;;;17.9;16.2;;;;;;;10.3;100.0;102170;;;;
2022/05/01 05:49:00;;;;;;;17.9;16.2;;;;;;;10.3;100.0;102170;;;;
2022/05/01 05:50:00;;;;;;;17.9;16.2;;;;;;;10.5;100.0;102170;;;;
2022/05/01 05:51:00;;;;;;;17.9;16.2;;;;;;;10.5;100.0;102170;;;;
2022/05/01 05:52:00;;;;;;;17.9;16.2;;;;;;;10.6;100.0;102170;;;;
2022/05/01 05:53:00;;;;;;;17.9;16.2;;;;;;;10.6;100.0;102170;;;;
2022/05/01 05:54:00;;;;;;;18.3;16.6;;;;;;;10.6;100.0;102170;;;;
2022/05/01 05:55:01;;;;;;;18.3;16.6;;;;;;;10.6;100.0;102170;;;;
2022/05/01 05:56:00;;;;;;;18.3;16.6;;;;;;;10.6;100.0;102170;;;;
2022/05/01 05:57:00;;;;;;;18.3;16.6;;;;;;;10.6;100.0;102170;;;;
2022/05/01 05:58:00;;;;;;;18.3;16.6;;;;;;;10.7;100.0;102170;;;;
2022/05/01 05:59:00;;;;;;;18.3;16.6;;;;;;;10.7;100.0;102170;;;;
2022/05/01 06:00:00;;;;;;;18.3;16.6;;;;;;;10.8;100.0;102180;;;;
2022/05/01 06:01:00;;;;;;;18.3;16.6;;;;;;;10.8;100.0;102180;;;;
2022/05/01 06:02:00;;;;;;;18.3;16.6;;;;;;;10.8;100.0;102170;;;;
2022/05/01 06:03:01;;;;;;;18.3;16.6;;;;;;;10.8;100.0;102170;;;;
2022/05/01 06:04:00;;;;;;;18.3;16.6;;;;;;;10.8;100.0;102170;;;;
2022/05/01 06:05:00;;;;;;;18.3;16.6;;;;;;;10.8;100.0;102170;;;;
2022/05/01 06:06:00;;;;;;;18.3;16.6;;;;;;;10.7;100.0;102170;;;;
2022/05/01 06:07:00;;;;;;;18.3;16.6;;;;;;;10.7;100.0;102170;;;;
2022/05/01 06:08:00;;;;;;;18.3;16.6;;;;;;;10.8;100.0;102170;;;;
2022/05/01 06:09:00;;;;;;;18.3;16.6;;;;;;;10.8;100.0;102170;;;;
2022/05/01 06:10:00;;;;;;;18.3;16.6;;;;;;;10.9;100.0;102170;;;;
2022/05/01 06:11:00;;;;;;;18.3;16.6;;;;;;;10.9;100.0;102170;;;;
2022/05/01 06:12:00;;;;;;;18.3;16.6;;;;;;;10.9;100.0;102170;;;;
2022/05/01 06:13:00;;;;;;;18.3;16.6;;;;;;;10.9;100.0;102170;;;;
2022/05/01 06:14:00;;;;;;;18.7;17.0;;;;;;;11.0;100.0;102170;;;;
2022/05/01 06:15:02;;;;;;;18.7;17.0;;;;;;;11.0;100.0;102170;;;;
2022/05/01 06:16:00;;;;;;;18.7;17.0;;;;;;;11.0;100.0;102170;;;;
2022/05/01 06:17:00;;;;;;;18.7;17.0;;;;;;;11.0;100.0;102170;;;;
2022/05/01 06:18:00;;;;;;;18.7;17.0;;;;;;;11.0;100.0;102170;;;;
2022/05/01 06:19:00;;;;;;;18.7;17.0;;;;;;;11.0;100.0;102170;;;;
2022/05/01 06:20:00;;;;;;;18.7;17.0;;;;;;;11.1;100.0;102170;;;;
2022/05/01 06:21:00;;;;;;;18.7;17.0;;;;;;;11.1;100.0;102170;;;;
2022/05/01 06:22:00;;;;;;;18.7;17.0;;;;;;;11.1;100.0;102180;;;;
2022/05/01 06:23:00;;;;;;;18.7;17.0;;;;;;;11.1;100.0;102180;;;;
2022/05/01 06:24:00;;;;;;;18.7;17.0;;;;;;;11.2;100.0;102170;;;;
2022/05/01 06:25:00;;;;;;;18.7;17.0;;;;;;;11.2;100.0;102170;;;;
2022/05/01 06:26:01;;;;;;;18.7;17.0;;;;;;;11.2;100.0;102170;;;;
2022/05/01 06:27:00;;;;;;;18.7;17.0;;;;;;;11.2;100.0;102170;;;;
2022/05/01 06:28:00;;;;;;;18.7;17.0;;;;;;;11.3;100.0;102170;;;;